createdAt,value
2022-08-26T00:02:07.133Z,22.80
2022-08-26T00:04:35.260Z,22.80
2022-08-26T00:07:05.335Z,22.80
2022-08-26T00:09:37.268Z,22.70
2022-08-26T00:12:07.623Z,22.70
2022-08-26T00:14:37.008Z,22.70
2022-08-26T00:17:05.309Z,22.70
2022-08-26T00:19:36.710Z,22.70
2022-08-26T00:22:06.303Z,22.70
2022-08-26T00:24:34.291Z,22.60
2022-08-26T00:27:02.185Z,22.70
2022-08-26T00:29:32.010Z,22.60
2022-08-26T00:32:04.083Z,22.60
2022-08-26T00:34:32.162Z,22.50
2022-08-26T00:37:00.398Z,22.50
2022-08-26T00:39:29.767Z,22.50
2022-08-26T00:41:57.822Z,22.50
2022-08-26T00:44:25.800Z,22.50
2022-08-26T00:46:58.293Z,22.40
2022-08-26T00:49:34.314Z,22.40
2022-08-26T00:52:05.294Z,22.40
2022-08-26T00:54:45.239Z,22.30
2022-08-26T00:57:16.464Z,22.30
2022-08-26T00:59:46.716Z,22.30
2022-08-26T01:02:20.217Z,22.30
2022-08-26T01:04:55.617Z,22.30
2022-08-26T01:07:25.316Z,22.30
2022-08-26T01:09:55.130Z,22.20
2022-08-26T01:12:24.675Z,22.20
2022-08-26T01:14:53.543Z,22.20
2022-08-26T01:17:21.520Z,22.10
2022-08-26T01:19:53.307Z,22.10
2022-08-26T01:22:28.613Z,22.10
2022-08-26T01:24:59.783Z,22.10
2022-08-26T01:27:32.422Z,22.10
2022-08-26T01:30:02.181Z,22.00
2022-08-26T01:32:32.806Z,22.00
2022-08-26T01:35:01.861Z,22.00
2022-08-26T01:37:35.475Z,22.00
2022-08-26T01:40:10.632Z,21.90
2022-08-26T01:42:38.605Z,21.90
2022-08-26T01:45:12.214Z,21.90
2022-08-26T01:47:40.676Z,21.90
2022-08-26T01:50:15.756Z,21.90
2022-08-26T01:52:57.048Z,21.90
2022-08-26T01:55:32.263Z,21.90
2022-08-26T01:58:06.122Z,21.80
2022-08-26T02:00:35.472Z,21.80
2022-08-26T02:03:22.313Z,21.80
2022-08-26T02:05:55.569Z,21.80
2022-08-26T02:08:27.358Z,21.70
2022-08-26T02:10:56.921Z,21.70
2022-08-26T02:13:30.064Z,21.70
2022-08-26T02:15:58.969Z,21.70
2022-08-26T02:18:28.723Z,21.70
2022-08-26T02:20:57.739Z,21.70
2022-08-26T02:23:25.739Z,21.60
2022-08-26T02:26:00.996Z,21.60
2022-08-26T02:28:34.032Z,21.60
2022-08-26T02:31:02.749Z,21.60
2022-08-26T02:33:31.144Z,21.50
2022-08-26T02:36:00.185Z,21.50
2022-08-26T02:38:29.412Z,21.50
2022-08-26T02:40:58.911Z,21.40
2022-08-26T02:43:31.335Z,21.50
2022-08-26T02:46:02.002Z,21.50
2022-08-26T02:48:30.877Z,21.50
2022-08-26T02:51:00.694Z,21.40
2022-08-26T02:53:31.886Z,21.40
2022-08-26T02:56:05.555Z,21.40
2022-08-26T02:58:33.554Z,21.40
2022-08-26T03:01:02.536Z,21.40
2022-08-26T03:03:33.565Z,21.40
2022-08-26T03:06:02.084Z,21.40
2022-08-26T03:08:30.066Z,21.30
2022-08-26T03:13:53.699Z,21.30
2022-08-26T03:16:21.710Z,21.30
2022-08-26T03:18:52.434Z,21.30
2022-08-26T03:21:21.020Z,21.30
2022-08-26T03:23:49.590Z,21.20
2022-08-26T03:26:18.101Z,21.20
2022-08-26T03:28:59.941Z,21.20
2022-08-26T03:31:29.499Z,21.20
2022-08-26T03:33:59.523Z,21.10
2022-08-26T03:36:28.716Z,21.20
2022-08-26T03:38:57.324Z,21.20
2022-08-26T03:41:25.478Z,21.20
2022-08-26T03:43:53.545Z,21.10
2022-08-26T03:46:21.529Z,21.10
2022-08-26T03:48:50.936Z,21.10
2022-08-26T03:51:20.415Z,21.10
2022-08-26T03:53:49.133Z,21.10
2022-08-26T03:56:17.130Z,21.00
2022-08-26T03:58:45.948Z,21.00
2022-08-26T04:01:16.379Z,21.00
2022-08-26T04:04:00.184Z,21.00
2022-08-26T04:06:33.160Z,20.90
2022-08-26T04:09:03.062Z,20.90
2022-08-26T04:11:34.262Z,20.90
2022-08-26T04:14:06.175Z,20.90
2022-08-26T04:16:35.252Z,20.90
2022-08-26T04:19:03.523Z,20.90
2022-08-26T04:21:33.321Z,20.90
2022-08-26T04:24:03.575Z,20.90
2022-08-26T04:26:36.933Z,20.90
2022-08-26T04:29:09.723Z,20.90
2022-08-26T04:31:39.840Z,20.90
2022-08-26T04:34:08.265Z,20.80
2022-08-26T04:36:40.976Z,20.80
2022-08-26T04:39:12.246Z,20.80
2022-08-26T04:41:40.493Z,20.80
2022-08-26T04:44:08.676Z,20.90
2022-08-26T04:46:39.947Z,20.80
2022-08-26T04:49:12.577Z,20.80
2022-08-26T04:51:41.880Z,20.90
2022-08-26T04:54:12.061Z,20.80
2022-08-26T04:56:42.285Z,20.90
2022-08-26T04:59:16.801Z,20.80
2022-08-26T05:01:47.905Z,20.80
2022-08-26T05:04:18.977Z,20.90
2022-08-26T05:06:48.605Z,20.90
2022-08-26T05:09:18.362Z,20.90
2022-08-26T05:11:48.622Z,20.90
2022-08-26T05:14:21.932Z,21.00
2022-08-26T05:16:50.343Z,21.00
2022-08-26T05:19:19.583Z,21.10
2022-08-26T05:21:49.443Z,21.00
2022-08-26T05:24:18.337Z,21.10
2022-08-26T05:26:47.194Z,21.10
2022-08-26T05:29:16.067Z,21.20
2022-08-26T05:31:44.793Z,21.10
2022-08-26T05:34:13.318Z,21.20
2022-08-26T05:36:42.138Z,21.20
2022-08-26T05:39:11.865Z,21.30
2022-08-26T05:41:42.143Z,21.30
2022-08-26T05:44:11.921Z,21.30
2022-08-26T05:46:41.007Z,21.30
2022-08-26T05:49:12.768Z,21.40
2022-08-26T05:51:43.010Z,21.40
2022-08-26T05:54:12.816Z,21.40
2022-08-26T05:56:41.403Z,21.50
2022-08-26T05:59:14.796Z,21.60
2022-08-26T06:01:44.136Z,21.60
2022-08-26T06:04:12.813Z,21.70
2022-08-26T06:06:42.701Z,21.80
2022-08-26T06:12:05.580Z,22.10
2022-08-26T06:14:33.511Z,22.20
2022-08-26T06:17:01.842Z,22.30
2022-08-26T06:19:32.758Z,22.40
2022-08-26T06:22:23.586Z,22.50
2022-08-26T06:25:10.668Z,22.60
2022-08-26T06:27:38.690Z,22.70
2022-08-26T06:30:07.711Z,22.70
2022-08-26T06:32:35.921Z,22.80
2022-08-26T06:35:03.937Z,22.90
2022-08-26T06:37:31.889Z,23.00
2022-08-26T06:40:04.691Z,23.10
2022-08-26T06:42:33.115Z,23.20
2022-08-26T06:45:01.990Z,23.30
2022-08-26T06:47:31.241Z,23.30
2022-08-26T06:50:02.108Z,23.40
2022-08-26T06:52:30.113Z,23.40
2022-08-26T06:54:58.031Z,23.50
2022-08-26T06:57:28.527Z,23.60
2022-08-26T06:59:59.698Z,23.60
2022-08-26T07:02:28.510Z,23.70
2022-08-26T07:04:56.994Z,23.70
2022-08-26T07:07:24.974Z,23.80
2022-08-26T07:09:53.050Z,23.90
2022-08-26T07:12:22.214Z,24.00
2022-08-26T07:14:51.955Z,24.10
2022-08-26T07:17:21.859Z,24.20
2022-08-26T07:19:53.614Z,24.30
2022-08-26T07:22:21.642Z,24.50
2022-08-26T07:24:49.735Z,24.70
2022-08-26T07:27:18.084Z,24.90
2022-08-26T07:29:46.910Z,25.00
2022-08-26T07:32:17.699Z,25.20
2022-08-26T07:34:46.342Z,25.40
2022-08-26T07:37:14.382Z,25.60
2022-08-26T07:39:43.229Z,25.60
2022-08-26T07:42:14.052Z,25.60
2022-08-26T07:44:42.814Z,25.60
2022-08-26T07:47:24.983Z,25.50
2022-08-26T07:49:56.702Z,25.40
2022-08-26T07:52:27.199Z,25.40
2022-08-26T07:54:56.404Z,25.30
2022-08-26T07:57:24.585Z,25.30
2022-08-26T07:59:55.043Z,25.30
2022-08-26T08:02:24.896Z,25.20
2022-08-26T08:04:53.424Z,25.30
2022-08-26T08:07:38.283Z,25.30
2022-08-26T08:10:11.374Z,25.30
2022-08-26T08:12:39.674Z,25.30
2022-08-26T08:15:09.097Z,25.30
2022-08-26T08:17:37.920Z,25.30
2022-08-26T08:20:07.499Z,25.30
2022-08-26T08:22:37.040Z,25.30
2022-08-26T08:25:06.271Z,25.30
2022-08-26T08:27:36.829Z,25.30
2022-08-26T08:30:05.979Z,25.40
2022-08-26T08:32:34.067Z,25.40
2022-08-26T08:35:10.833Z,25.50
2022-08-26T08:37:41.372Z,25.60
2022-08-26T08:40:11.461Z,25.60
2022-08-26T08:42:46.909Z,25.70
2022-08-26T08:45:18.928Z,25.70
2022-08-26T08:47:54.101Z,25.80
2022-08-26T08:50:28.249Z,25.90
2022-08-26T08:53:16.537Z,25.90
2022-08-26T08:55:56.729Z,25.90
2022-08-26T09:01:02.947Z,26.00
2022-08-26T09:03:43.376Z,26.00
2022-08-26T09:06:17.374Z,26.00
2022-08-26T09:08:50.428Z,26.10
2022-08-26T09:11:20.078Z,26.10
2022-08-26T09:13:51.088Z,26.10
2022-08-26T09:16:25.166Z,26.10
2022-08-26T09:19:04.935Z,26.10
2022-08-26T09:21:33.608Z,26.10
2022-08-26T09:24:05.172Z,26.10
2022-08-26T09:26:45.348Z,26.10
2022-08-26T09:32:19.302Z,26.20
2022-08-26T09:34:57.687Z,26.30
2022-08-26T09:37:38.240Z,26.30
2022-08-26T09:40:34.770Z,26.30
2022-08-26T09:43:15.820Z,26.30
2022-08-26T09:45:50.602Z,26.40
2022-08-26T09:48:34.813Z,26.50
2022-08-26T09:51:07.200Z,26.50
2022-08-26T09:53:50.480Z,26.60
2022-08-26T09:56:27.705Z,26.60
2022-08-26T09:58:56.870Z,26.70
2022-08-26T10:01:33.616Z,26.70
2022-08-26T10:04:10.957Z,26.80
2022-08-26T10:06:42.618Z,26.80
2022-08-26T10:09:14.411Z,26.90
2022-08-26T10:11:48.172Z,26.90
2022-08-26T10:14:22.132Z,26.90
2022-08-26T10:16:55.954Z,26.90
2022-08-26T10:19:41.843Z,26.90
2022-08-26T10:22:25.098Z,27.00
2022-08-26T10:24:56.938Z,26.90
2022-08-26T10:27:34.308Z,26.90
2022-08-26T10:30:08.560Z,26.90
2022-08-26T10:32:41.284Z,26.90
2022-08-26T10:35:13.011Z,26.90
2022-08-26T10:37:45.729Z,26.90
2022-08-26T10:40:17.670Z,26.90
2022-08-26T10:42:53.028Z,26.90
2022-08-26T10:45:25.558Z,27.00
2022-08-26T10:48:01.319Z,27.20
2022-08-26T10:50:37.430Z,27.30
2022-08-26T10:53:12.343Z,27.60
2022-08-26T10:55:48.499Z,27.80
2022-08-26T10:58:36.823Z,28.10
2022-08-26T11:01:41.948Z,28.20
2022-08-26T11:04:22.550Z,28.30
2022-08-26T11:07:10.933Z,28.30
2022-08-26T11:09:47.861Z,28.30
2022-08-26T11:12:49.223Z,28.60
2022-08-26T11:15:51.038Z,29.10
2022-08-26T11:18:39.596Z,29.40
2022-08-26T11:21:45.961Z,29.50
2022-08-26T11:24:47.770Z,29.60
2022-08-26T11:27:53.957Z,29.70
2022-08-26T11:30:56.964Z,29.70
2022-08-26T11:33:58.130Z,29.70
2022-08-26T11:36:59.619Z,29.70
2022-08-26T11:39:36.874Z,29.70
2022-08-26T11:42:23.131Z,29.60
2022-08-26T11:44:51.318Z,29.60
2022-08-26T11:47:29.284Z,29.60
2022-08-26T11:50:18.172Z,29.60
2022-08-26T11:52:57.158Z,29.70
2022-08-26T11:55:25.370Z,29.60
2022-08-26T11:57:56.218Z,29.60
2022-08-26T12:00:33.461Z,29.60
2022-08-26T12:03:05.989Z,29.70
2022-08-26T12:05:43.313Z,29.70
2022-08-26T12:08:17.367Z,29.80
2022-08-26T12:10:45.881Z,29.80
2022-08-26T12:13:23.824Z,29.80
2022-08-26T12:15:56.371Z,29.80
2022-08-26T12:18:29.356Z,29.80
2022-08-26T12:21:02.481Z,29.80
2022-08-26T12:23:41.286Z,29.80
2022-08-26T12:26:12.549Z,29.80
2022-08-26T12:28:46.087Z,29.80
2022-08-26T12:31:25.849Z,29.80
2022-08-26T12:33:55.230Z,29.80
2022-08-26T12:36:28.699Z,29.80
2022-08-26T12:38:58.493Z,29.80
2022-08-26T12:41:47.482Z,29.90
2022-08-26T12:44:39.162Z,29.80
2022-08-26T12:47:13.290Z,29.80
2022-08-26T12:49:42.973Z,29.80
2022-08-26T12:52:30.839Z,29.90
2022-08-26T12:55:01.208Z,29.90
2022-08-26T12:57:31.859Z,29.90
2022-08-26T13:00:28.338Z,29.90
2022-08-26T13:02:56.570Z,29.90
2022-08-26T13:05:28.636Z,29.90
2022-08-26T13:08:17.353Z,29.90
2022-08-26T13:10:47.837Z,29.90
2022-08-26T13:13:15.713Z,29.90
2022-08-26T13:15:44.713Z,29.90
2022-08-26T13:18:12.663Z,30.00
2022-08-26T13:20:44.779Z,30.00
2022-08-26T13:23:13.288Z,30.00
2022-08-26T13:25:42.802Z,30.10
2022-08-26T13:28:10.732Z,30.10
2022-08-26T13:30:39.110Z,29.70
2022-08-26T13:33:09.383Z,30.30
2022-08-26T13:35:40.549Z,30.50
2022-08-26T13:38:14.580Z,30.60
2022-08-26T13:41:00.422Z,30.50
2022-08-26T13:43:28.592Z,30.40
2022-08-26T13:45:56.503Z,30.40
2022-08-26T13:48:25.040Z,30.20
2022-08-26T13:50:53.814Z,30.10
2022-08-26T13:53:22.259Z,30.00
2022-08-26T13:55:50.272Z,29.90
2022-08-26T13:58:19.654Z,29.90
2022-08-26T14:00:47.652Z,29.80
2022-08-26T14:03:16.476Z,29.70
2022-08-26T14:05:44.634Z,29.70
2022-08-26T14:08:12.643Z,29.60
2022-08-26T14:10:42.024Z,29.60
2022-08-26T14:13:10.074Z,29.50
2022-08-26T14:15:39.682Z,29.40
2022-08-26T14:18:10.993Z,29.40
2022-08-26T14:20:39.792Z,29.30
2022-08-26T14:23:20.661Z,29.30
2022-08-26T14:25:48.851Z,29.30
2022-08-26T14:28:16.870Z,29.30
2022-08-26T14:30:50.293Z,29.20
2022-08-26T14:33:20.075Z,29.20
2022-08-26T14:35:49.109Z,29.10
2022-08-26T14:38:17.915Z,29.10
2022-08-26T14:40:46.402Z,29.00
2022-08-26T14:43:16.095Z,28.90
2022-08-26T14:45:47.876Z,28.80
2022-08-26T14:48:16.147Z,28.80
2022-08-26T14:50:44.145Z,28.70
2022-08-26T14:53:29.675Z,28.60
2022-08-26T14:55:57.671Z,28.60
2022-08-26T14:58:25.636Z,28.50
2022-08-26T15:01:04.517Z,28.40
2022-08-26T15:03:32.589Z,28.30
2022-08-26T15:06:00.629Z,28.20
2022-08-26T15:08:28.628Z,28.20
2022-08-26T15:10:56.566Z,28.10
2022-08-26T15:13:24.530Z,28.00
2022-08-26T15:15:52.573Z,27.90
2022-08-26T15:18:22.097Z,27.90
2022-08-26T15:20:50.321Z,27.80
2022-08-26T15:23:18.317Z,27.70
2022-08-26T15:25:46.771Z,27.70
2022-08-26T15:28:14.720Z,27.70
2022-08-26T15:30:43.096Z,27.60
2022-08-26T15:33:15.095Z,27.60
2022-08-26T15:35:45.328Z,27.60
2022-08-26T15:38:13.585Z,27.50
2022-08-26T15:40:41.696Z,27.50
2022-08-26T15:43:27.869Z,27.40
2022-08-26T15:45:56.862Z,27.40
2022-08-26T15:48:25.389Z,27.40
2022-08-26T15:50:56.428Z,27.30
2022-08-26T15:53:25.591Z,27.30
2022-08-26T15:55:56.333Z,27.20
2022-08-26T15:58:26.384Z,27.20
2022-08-26T16:00:55.946Z,27.20
2022-08-26T16:03:24.461Z,27.10
2022-08-26T16:05:54.043Z,27.10
2022-08-26T16:08:22.339Z,27.00
2022-08-26T16:10:51.300Z,27.00
2022-08-26T16:13:20.643Z,26.90
2022-08-26T16:15:48.787Z,26.90
2022-08-26T16:18:17.240Z,26.90
2022-08-26T16:20:57.398Z,26.90
2022-08-26T16:23:40.261Z,26.80
2022-08-26T16:26:12.220Z,26.80
2022-08-26T16:28:40.513Z,26.80
2022-08-26T16:31:09.520Z,26.70
2022-08-26T16:33:38.884Z,26.70
2022-08-26T16:36:07.977Z,26.70
2022-08-26T16:38:37.522Z,26.70
2022-08-26T16:41:08.173Z,26.60
2022-08-26T16:43:36.877Z,26.60
2022-08-26T16:46:07.132Z,26.50
2022-08-26T16:48:38.183Z,26.50
2022-08-26T16:51:06.231Z,26.40
2022-08-26T16:53:34.616Z,26.30
2022-08-26T16:56:02.554Z,26.30
2022-08-26T16:58:31.932Z,26.20
2022-08-26T17:00:59.863Z,26.10
2022-08-26T17:03:28.965Z,26.10
2022-08-26T17:05:56.938Z,26.00
2022-08-26T17:08:28.359Z,25.90
2022-08-26T17:10:57.077Z,25.90
2022-08-26T17:13:35.439Z,25.80
2022-08-26T17:16:07.718Z,25.70
2022-08-26T17:18:36.262Z,25.60
2022-08-26T17:21:05.809Z,25.60
2022-08-26T17:23:33.896Z,25.50
2022-08-26T17:26:01.938Z,25.40
2022-08-26T17:28:30.052Z,25.40
2022-08-26T17:30:58.390Z,25.40
2022-08-26T17:33:27.961Z,25.40
2022-08-26T17:35:56.445Z,25.40
2022-08-26T17:38:25.141Z,25.30
2022-08-26T17:40:53.502Z,25.30
2022-08-26T17:43:21.605Z,25.20
2022-08-26T17:45:49.620Z,25.10
2022-08-26T17:48:17.895Z,25.10
2022-08-26T17:50:49.726Z,25.10
2022-08-26T17:53:19.216Z,25.00
2022-08-26T17:55:47.628Z,25.00
2022-08-26T17:58:16.306Z,24.90
2022-08-26T18:00:45.595Z,24.90
2022-08-26T18:03:13.748Z,24.80
2022-08-26T18:05:42.540Z,24.70
2022-08-26T18:08:11.893Z,24.60
2022-08-26T18:10:41.721Z,24.50
2022-08-26T18:13:09.954Z,24.50
2022-08-26T18:15:40.057Z,24.40
2022-08-26T18:18:08.141Z,24.40
2022-08-26T18:20:38.119Z,24.30
2022-08-26T18:23:06.322Z,24.20
2022-08-26T18:25:36.163Z,24.20
2022-08-26T18:28:04.678Z,24.10
2022-08-26T18:30:32.681Z,24.10
2022-08-26T18:33:00.973Z,24.10
2022-08-26T18:35:29.888Z,24.00
2022-08-26T18:38:00.860Z,24.00
2022-08-26T18:40:33.261Z,23.90
2022-08-26T18:43:02.599Z,23.90
2022-08-26T18:45:30.665Z,23.80
2022-08-26T18:47:58.623Z,23.80
2022-08-26T18:50:26.595Z,23.80
2022-08-26T18:52:54.810Z,23.70
2022-08-26T18:55:22.916Z,23.70
2022-08-26T18:57:50.904Z,23.70
2022-08-26T19:00:20.536Z,23.70
2022-08-26T19:02:52.086Z,23.70
2022-08-26T19:05:25.664Z,23.60
2022-08-26T19:07:53.698Z,23.60
2022-08-26T19:10:21.651Z,23.60
2022-08-26T19:12:51.939Z,23.60
2022-08-26T19:15:21.829Z,23.60
2022-08-26T19:17:50.273Z,23.60
2022-08-26T19:20:18.424Z,23.60
2022-08-26T19:22:46.514Z,23.50
2022-08-26T19:25:14.608Z,23.50
2022-08-26T19:27:42.561Z,23.60
2022-08-26T19:30:11.375Z,23.80
2022-08-26T19:32:40.887Z,23.90
2022-08-26T19:35:09.941Z,24.20
2022-08-26T19:37:38.272Z,24.40
2022-08-26T19:40:07.707Z,24.60
2022-08-26T19:42:35.783Z,24.70
2022-08-26T19:45:11.056Z,24.80
2022-08-26T19:47:54.530Z,24.90
2022-08-26T19:50:23.051Z,24.90
2022-08-26T19:52:51.304Z,25.00
2022-08-26T19:55:20.711Z,25.00
2022-08-26T19:57:48.976Z,25.10
2022-08-26T20:00:23.506Z,25.10
2022-08-26T20:02:52.267Z,25.10
2022-08-26T20:05:23.420Z,25.20
2022-08-26T20:07:52.059Z,25.20
2022-08-26T20:10:22.706Z,25.20
2022-08-26T20:12:52.203Z,25.20
2022-08-26T20:15:21.221Z,25.20
2022-08-26T20:17:50.028Z,25.10
2022-08-26T20:20:35.268Z,25.10
2022-08-26T20:23:05.141Z,25.10
2022-08-26T20:25:34.063Z,25.00
2022-08-26T20:28:02.576Z,24.80
2022-08-26T20:30:30.794Z,24.60
2022-08-26T20:32:58.825Z,24.40
2022-08-26T20:35:27.371Z,24.30
2022-08-26T20:37:55.362Z,24.10
2022-08-26T20:40:24.951Z,24.00
2022-08-26T20:42:53.047Z,23.90
2022-08-26T20:45:21.060Z,23.80
2022-08-26T20:47:49.248Z,23.70
2022-08-26T20:50:17.237Z,23.70
2022-08-26T20:52:46.335Z,23.60
2022-08-26T20:55:14.363Z,23.50
2022-08-26T20:57:43.715Z,23.40
2022-08-26T21:00:14.127Z,23.40
2022-08-26T21:02:43.182Z,23.30
2022-08-26T21:05:11.321Z,23.30
2022-08-26T21:07:39.388Z,23.20
2022-08-26T21:10:07.959Z,23.10
2022-08-26T21:12:36.123Z,23.10
2022-08-26T21:15:07.385Z,23.00
2022-08-26T21:17:36.515Z,23.00
2022-08-26T21:20:05.313Z,22.90
2022-08-26T21:22:33.324Z,22.90
2022-08-26T21:25:01.565Z,22.80
2022-08-26T21:27:29.586Z,22.80
2022-08-26T21:29:57.846Z,22.70
2022-08-26T21:32:27.330Z,22.70
2022-08-26T21:34:56.849Z,22.60
2022-08-26T21:37:25.463Z,22.60
2022-08-26T21:39:55.271Z,22.60
2022-08-26T21:42:24.128Z,22.60
2022-08-26T21:44:53.315Z,22.60
2022-08-26T21:47:21.993Z,22.60
2022-08-26T21:49:51.584Z,22.60
2022-08-26T21:52:19.646Z,22.60
2022-08-26T21:54:49.657Z,22.60
2022-08-26T21:57:18.377Z,22.50
2022-08-26T21:59:46.345Z,22.50
2022-08-26T22:02:14.909Z,22.50
2022-08-26T22:04:46.829Z,22.50
2022-08-26T22:07:19.089Z,22.40
2022-08-26T22:09:47.336Z,22.40
2022-08-26T22:12:18.016Z,22.30
2022-08-26T22:14:46.985Z,22.30
2022-08-26T22:17:16.969Z,22.40
2022-08-26T22:19:46.168Z,22.30
2022-08-26T22:22:15.640Z,22.30
2022-08-26T22:24:44.982Z,22.30
2022-08-26T22:27:13.829Z,22.30
2022-08-26T22:29:42.062Z,22.30
2022-08-26T22:32:11.029Z,22.20
2022-08-26T22:34:39.074Z,22.20
2022-08-26T22:37:07.104Z,22.20
2022-08-26T22:39:35.062Z,22.10
2022-08-26T22:42:05.405Z,22.10
2022-08-26T22:44:36.314Z,22.10
2022-08-26T22:47:04.348Z,22.20
2022-08-26T22:49:32.314Z,22.10
2022-08-26T22:52:00.255Z,22.10
2022-08-26T22:54:28.232Z,22.10
2022-08-26T22:56:56.468Z,22.10
2022-08-26T22:59:25.859Z,22.10
2022-08-26T23:01:53.817Z,22.20
2022-08-26T23:04:21.894Z,22.10
2022-08-26T23:06:50.134Z,22.20
2022-08-26T23:09:19.511Z,22.20
2022-08-26T23:11:48.623Z,22.10
2022-08-26T23:14:17.436Z,22.10
2022-08-26T23:16:47.304Z,22.10
2022-08-26T23:19:16.554Z,22.10
2022-08-26T23:21:44.873Z,22.10
2022-08-26T23:24:13.299Z,22.10
2022-08-26T23:26:42.611Z,22.10
2022-08-26T23:29:12.394Z,22.00
2022-08-26T23:31:42.544Z,22.10
2022-08-26T23:34:30.444Z,22.10
2022-08-26T23:36:58.915Z,22.00
2022-08-26T23:39:27.433Z,22.00
2022-08-26T23:41:56.984Z,22.10
2022-08-26T23:44:26.404Z,22.00
2022-08-26T23:46:54.388Z,22.00
2022-08-26T23:49:24.207Z,22.10
2022-08-26T23:52:10.491Z,22.00
2022-08-26T23:54:39.001Z,22.00
2022-08-26T23:57:07.511Z,22.00
2022-08-26T23:59:35.556Z,22.00
